Time;durP1;ratioP1;P1;durP2;ratioP2;P2;SDS_P1;SDS_P2;PMS_P1;PMS_P2;Temp;Humidity;BMP_temperature;BMP_pressure;BME280_temperature;BME280_humidity;BME280_pressure;Samples;Min_cycle;Max_cycle;Signal;HPM_P1;HPM_P2
2022/08/10 00:01:08;;;;;;;9.23;4.40;;;17.50;94.40;;;;;;5072093;28;20025;-81
2022/08/10 00:03:34;;;;;;;5.15;4.38;;;17.50;94.40;;;;;;5072115;28;20031;-80
2022/08/10 00:05:59;;;;;;;9.07;4.15;;;17.50;94.40;;;;;;5072426;28;20118;-80
2022/08/10 00:08:25;;;;;;;7.13;4.03;;;17.50;94.30;;;;;;5071819;28;20036;-80
2022/08/10 00:10:56;;;;;;;5.00;3.63;;;17.50;94.30;;;;;;5072006;28;20473;-80
2022/08/10 00:13:24;;;;;;;7.68;4.15;;;17.50;94.20;;;;;;5077332;28;20099;-80
2022/08/10 00:15:51;;;;;;;7.63;4.10;;;17.50;94.50;;;;;;5082497;28;20016;-80
2022/08/10 00:18:18;;;;;;;6.97;3.72;;;17.40;94.20;;;;;;5078945;28;20461;-80
2022/08/10 00:20:44;;;;;;;5.80;3.70;;;17.40;94.30;;;;;;5071816;28;20025;-80
2022/08/10 00:23:10;;;;;;;6.63;3.40;;;17.30;94.30;;;;;;5071926;28;20369;-80
2022/08/10 00:25:36;;;;;;;5.95;4.07;;;17.30;94.30;;;;;;5070406;28;20032;-80
2022/08/10 00:28:02;;;;;;;4.53;3.33;;;17.30;94.30;;;;;;5070290;28;20127;-80
2022/08/10 00:30:28;;;;;;;5.45;3.47;;;17.30;94.40;;;;;;5080599;28;20182;-80
2022/08/10 00:32:53;;;;;;;4.45;3.45;;;17.30;94.20;;;;;;5071667;28;20021;-80
2022/08/10 00:35:19;;;;;;;5.35;3.70;;;17.30;94.20;;;;;;5071788;28;20031;-81
2022/08/10 00:37:45;;;;;;;3.83;3.08;;;17.30;94.20;;;;;;5071696;28;20029;-81
2022/08/10 00:40:11;;;;;;;5.60;3.92;;;17.30;94.20;;;;;;5071962;28;20017;-81
2022/08/10 00:42:37;;;;;;;6.75;4.18;;;17.30;94.20;;;;;;5071614;28;20358;-82
2022/08/10 00:45:04;;;;;;;8.85;4.30;;;17.30;94.10;;;;;;5071776;28;20027;-81
2022/08/10 00:47:30;;;;;;;4.17;3.77;;;17.30;94.10;;;;;;5070122;28;20651;-81
2022/08/10 00:49:56;;;;;;;4.05;3.45;;;17.30;94.10;;;;;;5071636;28;20020;-81
2022/08/10 00:52:24;;;;;;;5.15;2.88;;;17.20;94.10;;;;;;5071635;28;20044;-81
2022/08/10 00:54:50;;;;;;;4.63;3.15;;;17.20;94.10;;;;;;5071583;28;20066;-80
2022/08/10 00:57:16;;;;;;;4.95;3.33;;;17.30;94.10;;;;;;5075165;28;20012;-80
2022/08/10 00:59:43;;;;;;;5.53;3.30;;;17.20;94.10;;;;;;5074509;28;20428;-82
2022/08/10 01:02:09;;;;;;;6.45;3.10;;;17.20;94.10;;;;;;5071042;28;20120;-80
2022/08/10 01:04:36;;;;;;;5.78;3.47;;;17.20;94.10;;;;;;5069569;28;20124;-81
2022/08/10 01:07:29;;;;;;;5.95;3.63;;;17.20;94.10;;;;;;5059944;28;20437;-81
2022/08/10 01:10:47;;;;;;;9.15;3.75;;;17.20;94.10;;;;;;5061038;28;20032;-82
2022/08/10 01:13:30;;;;;;;5.07;3.03;;;17.20;94.20;;;;;;5013505;28;20106;-82
2022/08/10 01:16:23;;;;;;;4.95;3.85;;;17.20;94.20;;;;;;5059397;28;20033;-81
2022/08/10 01:19:06;;;;;;;4.90;3.22;;;17.10;94.30;;;;;;5057893;28;20470;-81
2022/08/10 01:22:03;;;;;;;4.75;3.80;;;17.10;94.40;;;;;;5059110;28;20081;-81
2022/08/10 01:24:55;;;;;;;5.20;3.80;;;17.10;94.40;;;;;;5070193;28;20036;-80
2022/08/10 01:27:25;;;;;;;5.03;3.60;;;17.10;94.50;;;;;;5074750;28;20056;-81
2022/08/10 01:29:59;;;;;;;7.03;3.97;;;17.10;94.60;;;;;;5074993;28;20032;-80
2022/08/10 01:33:04;;;;;;;7.50;4.05;;;17.00;94.70;;;;;;5075169;28;20067;-81
2022/08/10 01:35:43;;;;;;;4.13;3.65;;;17.00;94.60;;;;;;5058479;28;20041;-82
2022/08/10 01:38:25;;;;;;;5.55;4.55;;;17.00;94.70;;;;;;5067454;28;20021;-81
2022/08/10 01:41:31;;;;;;;4.80;3.03;;;17.00;94.60;;;;;;5080566;28;20366;-81
2022/08/10 01:44:09;;;;;;;6.47;3.42;;;17.00;94.60;;;;;;5067389;28;20090;-81
2022/08/10 01:46:38;;;;;;;5.63;3.72;;;17.00;94.60;;;;;;5062763;28;20033;-81
2022/08/10 01:49:10;;;;;;;4.20;3.20;;;17.00;94.50;;;;;;5075522;28;20055;-80
2022/08/10 01:51:51;;;;;;;3.83;3.53;;;17.00;94.50;;;;;;5062395;28;20019;-81
2022/08/10 01:54:24;;;;;;;6.13;3.42;;;17.00;94.50;;;;;;5074860;28;20039;-80
2022/08/10 01:56:55;;;;;;;4.03;3.50;;;17.00;94.50;;;;;;5074957;28;20024;-81
2022/08/10 01:59:21;;;;;;;5.70;3.78;;;17.00;94.40;;;;;;5073338;28;20456;-80
2022/08/10 02:01:55;;;;;;;5.68;2.92;;;17.00;94.50;;;;;;5074686;28;20044;-79
2022/08/10 02:04:24;;;;;;;6.78;3.13;;;17.00;94.50;;;;;;5074253;28;20036;-79
2022/08/10 02:06:52;;;;;;;4.25;2.97;;;17.00;94.60;;;;;;5060368;28;20024;-79
2022/08/10 02:09:22;;;;;;;5.32;2.65;;;17.00;94.50;;;;;;5063268;28;20028;-80
2022/08/10 02:11:50;;;;;;;6.05;3.38;;;17.00;94.50;;;;;;5066747;28;20020;-80
2022/08/10 02:14:18;;;;;;;6.35;3.75;;;17.00;94.40;;;;;;5074424;28;20020;-80
2022/08/10 02:16:47;;;;;;;6.07;2.92;;;17.00;94.30;;;;;;5078380;28;20373;-79
2022/08/10 02:19:16;;;;;;;3.28;2.60;;;17.10;94.40;;;;;;5074515;28;20044;-81
2022/08/10 02:21:45;;;;;;;4.80;3.70;;;17.00;94.40;;;;;;5074106;28;20023;-79
2022/08/10 02:24:13;;;;;;;4.18;2.70;;;17.10;94.30;;;;;;5074307;28;20029;-81
2022/08/10 02:26:43;;;;;;;4.18;3.25;;;17.10;94.20;;;;;;5073908;28;20437;-78
2022/08/10 02:29:13;;;;;;;6.00;3.22;;;17.10;94.10;;;;;;5073807;28;20036;-80
2022/08/10 02:31:56;;;;;;;4.50;3.35;;;17.20;94.00;;;;;;5073985;28;20023;-80
2022/08/10 02:34:24;;;;;;;4.13;2.95;;;17.30;94.00;;;;;;5073875;28;20017;-80
2022/08/10 02:36:53;;;;;;;8.00;3.35;;;17.30;93.80;;;;;;5074182;28;20049;-80
2022/08/10 02:39:20;;;;;;;5.22;2.92;;;17.40;93.70;;;;;;5062064;28;20028;-80
2022/08/10 02:41:56;;;;;;;5.38;2.67;;;17.50;93.50;;;;;;5074058;28;20473;-80
2022/08/10 02:44:50;;;;;;;6.00;3.60;;;17.50;93.30;;;;;;5059986;28;20385;-80
2022/08/10 02:47:30;;;;;;;3.90;3.30;;;17.50;93.30;;;;;;5073721;28;20025;-80
2022/08/10 02:50:13;;;;;;;5.13;2.72;;;17.50;93.30;;;;;;5073683;28;20107;-81
2022/08/10 02:52:49;;;;;;;6.60;3.60;;;17.60;93.40;;;;;;5073368;28;20017;-80
2022/08/10 02:55:20;;;;;;;4.35;3.13;;;17.70;93.10;;;;;;5073535;28;20072;-80
2022/08/10 02:57:53;;;;;;;7.82;3.00;;;17.80;92.90;;;;;;5073374;28;20071;-81
2022/08/10 03:00:19;;;;;;;3.72;2.92;;;17.90;92.70;;;;;;5073449;28;20024;-81
2022/08/10 03:02:48;;;;;;;4.25;3.00;;;17.90;92.50;;;;;;5073309;28;20153;-80
2022/08/10 03:05:16;;;;;;;7.35;3.55;;;18.00;92.30;;;;;;5063301;28;20524;-79
2022/08/10 03:07:52;;;;;;;3.83;2.88;;;18.00;92.30;;;;;;5073127;28;20115;-79
2022/08/10 03:10:28;;;;;;;4.17;2.80;;;17.90;92.20;;;;;;5053300;28;20021;-80
2022/08/10 03:13:01;;;;;;;7.97;3.35;;;17.80;92.20;;;;;;5054509;28;20067;-80
2022/08/10 03:15:30;;;;;;;7.40;3.55;;;17.80;92.30;;;;;;5059518;28;20027;-79
2022/08/10 03:17:57;;;;;;;6.38;4.00;;;17.70;92.30;;;;;;5072583;28;20025;-79
2022/08/10 03:20:24;;;;;;;4.13;3.60;;;17.70;92.50;;;;;;5072688;28;20105;-80
2022/08/10 03:22:51;;;;;;;6.35;2.97;;;17.70;92.50;;;;;;5076976;28;20634;-80
2022/08/10 03:25:21;;;;;;;7.43;3.65;;;17.60;92.50;;;;;;5087068;28;20386;-80
2022/08/10 03:27:48;;;;;;;6.18;3.67;;;17.60;92.50;;;;;;5073951;28;20139;-80
2022/08/10 03:30:14;;;;;;;6.20;3.22;;;17.60;92.50;;;;;;5076905;28;20386;-80
2022/08/10 03:32:42;;;;;;;4.97;3.53;;;17.70;92.60;;;;;;5072805;28;20037;-79
2022/08/10 03:35:09;;;;;;;3.95;3.55;;;17.80;92.40;;;;;;5072608;28;20012;-79
2022/08/10 03:37:36;;;;;;;4.03;3.17;;;17.90;92.10;;;;;;5072650;28;20016;-81
2022/08/10 03:40:02;;;;;;;4.53;2.75;;;18.10;91.90;;;;;;5074595;28;20044;-80
2022/08/10 03:42:31;;;;;;;6.22;3.15;;;18.20;91.50;;;;;;5073848;28;20513;-80
2022/08/10 03:44:57;;;;;;;3.83;3.40;;;18.30;91.30;;;;;;5072724;28;20112;-81
2022/08/10 03:47:25;;;;;;;6.70;3.50;;;18.30;91.10;;;;;;5073078;28;20017;-79
2022/08/10 03:49:53;;;;;;;5.97;3.42;;;18.30;91.00;;;;;;5075852;28;20115;-81
2022/08/10 03:52:20;;;;;;;5.43;3.33;;;18.20;91.00;;;;;;5078650;28;20066;-80
2022/08/10 03:54:47;;;;;;;10.20;2.95;;;18.30;91.00;;;;;;5075023;28;20035;-80
2022/08/10 03:57:13;;;;;;;7.43;3.20;;;18.40;90.80;;;;;;5073629;28;20386;-80
2022/08/10 03:59:39;;;;;;;5.28;3.17;;;18.60;90.50;;;;;;5072421;28;20036;-80
2022/08/10 04:02:05;;;;;;;5.05;3.03;;;18.80;90.00;;;;;;5070108;28;20020;-81
2022/08/10 04:04:32;;;;;;;6.15;3.17;;;19.00;88.90;;;;;;5070886;28;20048;-81
2022/08/10 04:06:59;;;;;;;4.30;2.97;;;19.30;88.20;;;;;;5072857;28;20092;-82
2022/08/10 04:09:27;;;;;;;7.88;4.25;;;19.40;87.10;;;;;;5060164;28;20045;-82
2022/08/10 04:11:52;;;;;;;6.07;2.90;;;19.50;85.90;;;;;;5103186;28;20019;-80
2022/08/10 04:14:18;;;;;;;3.67;3.17;;;19.50;85.20;;;;;;5072550;28;20116;-80
2022/08/10 04:16:44;;;;;;;5.43;2.95;;;19.50;85.30;;;;;;5072030;28;20021;-79
2022/08/10 04:19:12;;;;;;;7.32;3.90;;;19.50;84.70;;;;;;5072185;28;20108;-80
2022/08/10 04:21:41;;;;;;;8.13;3.38;;;19.50;84.90;;;;;;5062805;28;20496;-80
2022/08/10 04:24:11;;;;;;;6.63;3.72;;;19.50;84.50;;;;;;5062350;28;20079;-80
2022/08/10 04:26:38;;;;;;;14.85;8.77;;;19.30;84.70;;;;;;5051841;28;20402;-81
2022/08/10 04:29:04;;;;;;;4.73;3.00;;;19.20;85.40;;;;;;5051754;28;20041;-81
2022/08/10 04:31:31;;;;;;;5.07;3.30;;;19.00;85.50;;;;;;5092037;28;20035;-79
2022/08/10 04:33:58;;;;;;;7.30;4.33;;;19.00;85.80;;;;;;5053273;28;20027;-78
2022/08/10 04:36:25;;;;;;;9.13;5.80;;;19.00;86.30;;;;;;5055255;28;20766;-79
2022/08/10 04:38:52;;;;;;;5.95;4.50;;;19.10;86.50;;;;;;5051930;28;20064;-79
2022/08/10 04:41:18;;;;;;;3.38;2.50;;;19.20;85.60;;;;;;5051677;28;20027;-80
2022/08/10 04:43:44;;;;;;;3.67;2.70;;;19.30;85.60;;;;;;5051915;28;20107;-80
2022/08/10 04:46:10;;;;;;;6.97;3.10;;;19.50;85.00;;;;;;5051690;28;20394;-79
2022/08/10 04:48:36;;;;;;;5.72;3.35;;;19.80;85.00;;;;;;5051539;28;20301;-79
2022/08/10 04:51:02;;;;;;;6.10;3.50;;;20.00;83.90;;;;;;5059706;28;20092;-79
2022/08/10 04:53:28;;;;;;;7.20;2.80;;;20.20;82.10;;;;;;5060290;28;20473;-81
2022/08/10 04:55:54;;;;;;;8.27;3.85;;;20.30;81.50;;;;;;5063480;28;20025;-81
2022/08/10 04:58:20;;;;;;;7.90;3.67;;;20.70;81.30;;;;;;5051759;28;20052;-81
2022/08/10 05:00:46;;;;;;;3.85;2.80;;;21.30;78.90;;;;;;5051099;28;20029;-80
2022/08/10 05:03:12;;;;;;;5.83;2.60;;;22.00;76.80;;;;;;5051320;28;20028;-80
2022/08/10 05:05:38;;;;;;;6.45;2.63;;;22.70;73.70;;;;;;5052846;28;20437;-81
2022/08/10 05:08:04;;;;;;;8.23;4.07;;;22.80;71.40;;;;;;5064839;28;20447;-80
2022/08/10 05:10:29;;;;;;;5.15;2.65;;;22.30;73.10;;;;;;5051351;28;20052;-80
2022/08/10 05:12:55;;;;;;;6.22;3.15;;;21.90;73.70;;;;;;5064742;28;20328;-80
2022/08/10 05:15:23;;;;;;;9.13;4.38;;;21.60;74.40;;;;;;5070098;28;20035;-80
2022/08/10 05:17:50;;;;;;;7.80;3.30;;;21.30;75.80;;;;;;5071381;28;20025;-79
2022/08/10 05:20:16;;;;;;;7.72;5.22;;;20.90;76.80;;;;;;5071392;28;20020;-79
2022/08/10 05:22:43;;;;;;;4.30;3.55;;;20.70;78.30;;;;;;5071313;28;20032;-80
2022/08/10 05:25:15;;;;;;;4.03;2.10;;;20.40;78.90;;;;;;5057634;28;20058;-78
2022/08/10 05:27:42;;;;;;;3.38;2.42;;;20.20;79.70;;;;;;5051347;28;20127;-81
2022/08/10 05:30:14;;;;;;;8.90;2.88;;;20.30;79.90;;;;;;5051481;28;20025;-80
2022/08/10 05:32:40;;;;;;;4.90;2.97;;;20.30;79.90;;;;;;5051235;28;20343;-79
2022/08/10 05:35:06;;;;;;;6.40;2.88;;;20.30;80.30;;;;;;5051549;28;20017;-81
2022/08/10 05:37:32;;;;;;;7.33;3.27;;;20.40;80.20;;;;;;5050954;28;20033;-80
2022/08/10 05:40:00;;;;;;;9.82;2.80;;;20.50;79.60;;;;;;5051452;28;20151;-80
2022/08/10 05:42:27;;;;;;;4.95;2.35;;;20.60;79.20;;;;;;5057665;28;20025;-80
2022/08/10 05:44:53;;;;;;;6.70;3.83;;;20.80;78.70;;;;;;5055050;28;20016;-83
2022/08/10 05:47:18;;;;;;;8.23;3.25;;;21.10;78.30;;;;;;5057810;28;20035;-80
2022/08/10 05:49:48;;;;;;;5.80;2.83;;;21.30;77.40;;;;;;5070366;28;20490;-78
2022/08/10 05:52:18;;;;;;;3.38;2.40;;;21.60;76.60;;;;;;5063153;28;20029;-78
2022/08/10 05:54:44;;;;;;;5.22;2.67;;;21.70;76.10;;;;;;5073155;28;20020;-80
2022/08/10 05:57:11;;;;;;;4.87;2.87;;;21.70;75.80;;;;;;5065260;28;20056;-80
2022/08/10 05:59:45;;;;;;;5.45;3.30;;;21.60;75.90;;;;;;5055062;28;20258;-80
2022/08/10 06:02:38;;;;;;;11.57;4.05;;;22.00;75.70;;;;;;5055662;28;20100;-81
2022/08/10 06:05:18;;;;;;;7.03;4.15;;;22.30;74.30;;;;;;5052176;28;20059;-81
2022/08/10 06:08:10;;;;;;;6.68;3.05;;;22.50;73.50;;;;;;5070129;28;20039;-79
2022/08/10 06:10:37;;;;;;;5.03;3.10;;;22.80;72.80;;;;;;5064361;28;20025;-81
2022/08/10 06:15:52;;;;;;;7.28;3.30;;;22.60;71.60;;;;;;5066371;28;20091;-81
2022/08/10 06:18:19;;;;;;;9.90;5.55;;;22.20;72.50;;;;;;5066353;28;20032;-81
2022/08/10 06:21:03;;;;;;;5.97;2.65;;;22.10;73.70;;;;;;5055880;28;20029;-83
2022/08/10 06:23:30;;;;;;;6.57;3.83;;;22.70;72.90;;;;;;5056000;28;20021;-81
2022/08/10 06:25:56;;;;;;;3.75;2.65;;;23.70;69.80;;;;;;5054023;28;20031;-80
2022/08/10 06:28:24;;;;;;;2.78;2.45;;;23.90;68.40;;;;;;5053945;28;20119;-81
2022/08/10 06:30:52;;;;;;;5.75;2.30;;;24.30;67.00;;;;;;5064422;28;20029;-82
2022/08/10 06:33:21;;;;;;;5.65;2.50;;;25.60;65.90;;;;;;5053447;28;20029;-80
2022/08/10 06:35:51;;;;;;;8.68;3.15;;;25.80;64.00;;;;;;5053582;28;20017;-80
2022/08/10 06:38:17;;;;;;;8.02;2.33;;;27.00;61.40;;;;;;5053647;28;20021;-80
2022/08/10 06:40:46;;;;;;;4.20;1.95;;;28.00;58.30;;;;;;5053637;28;20024;-80
2022/08/10 06:43:15;;;;;;;4.18;2.30;;;28.90;55.60;;;;;;5054965;28;20029;-80
2022/08/10 06:45:53;;;;;;;4.78;2.50;;;29.90;53.90;;;;;;5053443;28;20553;-80
2022/08/10 06:48:32;;;;;;;8.45;2.15;;;31.40;51.80;;;;;;5054209;28;20043;-81
2022/08/10 06:51:02;;;;;;;3.70;2.05;;;32.70;49.10;;;;;;5053418;28;20040;-80
2022/08/10 06:53:32;;;;;;;3.95;2.00;;;33.00;47.20;;;;;;5054312;28;20025;-80
2022/08/10 06:56:03;;;;;;;4.47;1.90;;;33.90;45.00;;;;;;5053320;28;20078;-81
2022/08/10 06:58:33;;;;;;;10.88;5.55;;;;;;;;;;5053481;28;20071;-80
2022/08/10 07:01:03;;;;;;;3.85;2.05;;;34.00;45.10;;;;;;5053442;28;20041;-80
2022/08/10 07:03:37;;;;;;;3.92;1.70;;;33.90;44.60;;;;;;5053374;28;20036;-80
2022/08/10 07:06:05;;;;;;;3.33;2.30;;;33.70;43.80;;;;;;5065405;28;20028;-80
2022/08/10 07:08:35;;;;;;;5.13;1.92;;;32.60;45.20;;;;;;5072125;28;20470;-80
2022/08/10 07:11:03;;;;;;;6.30;2.58;;;32.80;45.30;;;;;;5073317;28;20449;-80
2022/08/10 07:13:30;;;;;;;10.93;5.55;;;33.70;44.80;;;;;;5072931;28;20113;-79
2022/08/10 07:15:58;;;;;;;9.38;2.35;;;33.90;43.60;;;;;;5071791;28;20370;-80
2022/08/10 07:18:25;;;;;;;8.52;2.78;;;33.30;44.10;;;;;;5072707;28;20036;-80
2022/08/10 07:20:53;;;;;;;11.57;3.38;;;33.90;43.60;;;;;;5072186;28;20025;-81
2022/08/10 07:23:22;;;;;;;5.63;1.73;;;33.60;43.80;;;;;;5072977;28;20024;-80
2022/08/10 07:25:50;;;;;;;7.18;2.10;;;33.50;43.40;;;;;;5072865;28;20016;-79
2022/08/10 07:28:18;;;;;;;4.95;2.47;;;35.00;40.00;;;;;;5071898;28;20493;-80
2022/08/10 07:30:44;;;;;;;6.03;1.77;;;34.90;40.30;;;;;;5072524;28;20424;-80
2022/08/10 07:33:15;;;;;;;6.20;2.13;;;35.40;39.40;;;;;;5071317;28;20024;-82
2022/08/10 07:35:42;;;;;;;7.80;2.63;;;34.90;39.50;;;;;;5072461;28;20024;-79
2022/08/10 07:38:12;;;;;;;6.82;1.65;;;35.20;38.80;;;;;;5071781;28;20058;-80
2022/08/10 07:40:40;;;;;;;3.70;1.65;;;35.50;38.40;;;;;;5072456;28;20041;-79
2022/08/10 07:43:06;;;;;;;2.75;1.40;;;35.00;38.70;;;;;;5072893;28;20059;-82
2022/08/10 07:45:34;;;;;;;8.30;3.00;;;34.80;38.50;;;;;;5072524;28;20074;-80
2022/08/10 07:48:12;;;;;;;3.97;2.33;;;33.00;40.10;;;;;;5071231;28;20120;-79
2022/08/10 07:50:39;;;;;;;3.28;1.63;;;32.10;42.60;;;;;;5072316;28;20508;-79
2022/08/10 07:53:11;;;;;;;4.10;2.03;;;32.20;42.00;;;;;;5066788;28;20441;-79
2022/08/10 07:55:40;;;;;;;1.65;1.38;;;31.40;42.10;;;;;;5067422;28;20086;-79
2022/08/10 07:58:06;;;;;;;3.88;2.22;;;30.40;43.20;;;;;;5073641;28;20032;-80
2022/08/10 08:00:33;;;;;;;5.70;2.30;;;29.20;44.90;;;;;;5073112;28;20020;-79
2022/08/10 08:03:02;;;;;;;6.72;2.53;;;28.20;46.70;;;;;;5072196;28;20033;-79
2022/08/10 08:05:29;;;;;;;7.72;3.10;;;27.40;48.10;;;;;;5071818;28;20078;-80
2022/08/10 08:07:57;;;;;;;11.82;4.22;;;26.60;50.10;;;;;;5072368;28;20035;-80
2022/08/10 08:10:26;;;;;;;6.35;3.35;;;25.90;51.40;;;;;;5058177;28;20059;-80
2022/08/10 08:12:56;;;;;;;5.63;2.92;;;26.70;51.90;;;;;;5071961;28;20027;-82
2022/08/10 08:15:23;;;;;;;6.57;2.63;;;29.20;48.80;;;;;;5070804;28;20028;-79
2022/08/10 08:17:52;;;;;;;5.07;2.30;;;30.90;44.90;;;;;;5072140;28;20116;-78
2022/08/10 08:20:19;;;;;;;3.83;1.92;;;31.10;43.70;;;;;;5071908;28;20536;-79
2022/08/10 08:22:47;;;;;;;3.90;1.98;;;30.80;43.70;;;;;;5071922;28;20028;-83
2022/08/10 08:25:15;;;;;;;5.70;2.03;;;31.30;43.90;;;;;;5071845;28;20158;-81
2022/08/10 08:27:43;;;;;;;3.25;1.65;;;32.40;41.30;;;;;;5068373;28;20091;-79
2022/08/10 08:30:09;;;;;;;4.53;1.67;;;33.10;38.00;;;;;;5071732;28;20029;-79
2022/08/10 08:32:55;;;;;;;4.78;1.42;;;33.50;38.70;;;;;;5071753;28;20039;-80
2022/08/10 08:35:22;;;;;;;3.03;1.60;;;34.50;38.70;;;;;;5071685;28;20048;-80
2022/08/10 08:37:51;;;;;;;6.05;1.52;;;35.80;36.90;;;;;;5070348;28;20509;-80
2022/08/10 08:40:23;;;;;;;2.80;1.70;;;35.30;36.10;;;;;;5070189;28;20044;-79
2022/08/10 08:43:15;;;;;;;1.85;1.35;;;35.50;36.80;;;;;;5071767;28;20493;-80
2022/08/10 08:45:51;;;;;;;2.83;1.40;;;37.00;36.30;;;;;;5058953;28;20056;-79
2022/08/10 08:48:42;;;;;;;3.70;1.73;;;37.70;34.80;;;;;;5070337;28;20055;-78
2022/08/10 08:51:17;;;;;;;6.85;3.60;;;36.70;34.50;;;;;;5071657;28;20013;-80
2022/08/10 08:54:03;;;;;;;6.13;1.70;;;34.10;35.90;;;;;;5071440;28;20458;-80
2022/08/10 08:57:01;;;;;;;1.92;1.50;;;31.50;38.00;;;;;;5060613;28;20128;-79
2022/08/10 08:59:57;;;;;;;4.93;2.30;;;29.80;41.30;;;;;;5071331;28;20500;-79
2022/08/10 09:02:42;;;;;;;2.92;1.63;;;28.70;43.70;;;;;;5065802;28;20025;-81
2022/08/10 09:05:08;;;;;;;6.95;2.45;;;28.40;44.20;;;;;;5071337;28;20031;-81
2022/08/10 09:07:55;;;;;;;7.45;3.25;;;29.00;44.10;;;;;;5071196;28;20028;-80
2022/08/10 09:10:54;;;;;;;5.25;4.47;;;29.90;42.80;;;;;;5055613;28;20123;-80
2022/08/10 09:13:26;;;;;;;3.92;2.28;;;29.40;42.50;;;;;;5070995;28;20374;-79
2022/08/10 09:16:07;;;;;;;7.00;4.30;;;28.80;43.20;;;;;;5070935;28;20021;-79
2022/08/10 09:18:50;;;;;;;4.65;1.80;;;28.60;43.40;;;;;;5075167;28;20050;-80
2022/08/10 09:21:53;;;;;;;4.63;2.63;;;28.70;43.90;;;;;;5066941;28;20028;-80
2022/08/10 09:24:43;;;;;;;3.78;2.15;;;29.00;44.40;;;;;;5064107;28;20024;-79
2022/08/10 09:27:39;;;;;;;6.00;2.40;;;29.40;43.50;;;;;;5074445;28;20045;-81
2022/08/10 09:30:10;;;;;;;3.03;1.90;;;29.30;43.70;;;;;;5036741;28;20033;-79
2022/08/10 09:32:42;;;;;;;7.57;1.83;;;29.20;44.00;;;;;;5075235;28;20039;-80
2022/08/10 09:35:22;;;;;;;9.07;3.35;;;30.30;42.80;;;;;;5075093;28;20021;-79
2022/08/10 09:38:30;;;;;;;4.13;1.90;;;30.70;41.50;;;;;;5066136;28;20030;-80
2022/08/10 09:41:33;;;;;;;9.88;2.72;;;29.90;41.80;;;;;;5063201;28;20028;-79
2022/08/10 09:44:25;;;;;;;4.78;1.90;;;29.30;43.30;;;;;;5074267;28;20032;-80
2022/08/10 09:46:57;;;;;;;5.82;2.58;;;29.10;44.00;;;;;;5074726;28;20037;-80
2022/08/10 09:50:05;;;;;;;3.22;1.92;;;29.60;43.70;;;;;;5074352;28;20080;-79
2022/08/10 09:52:55;;;;;;;5.93;2.60;;;30.70;42.90;;;;;;5037258;28;20025;-78
2022/08/10 09:55:44;;;;;;;2.42;1.60;;;30.60;41.80;;;;;;5066316;28;20409;-80
2022/08/10 09:58:31;;;;;;;2.55;1.25;;;30.90;41.90;;;;;;5061967;28;20028;-80
2022/08/10 10:01:19;;;;;;;1.90;1.30;;;31.80;40.30;;;;;;5075749;28;20028;-80
2022/08/10 10:04:08;;;;;;;7.05;1.40;;;32.70;39.30;;;;;;5075351;28;20435;-78
2022/08/10 10:06:52;;;;;;;2.35;1.80;;;33.20;38.40;;;;;;5072776;28;20031;-79
2022/08/10 10:09:53;;;;;;;5.47;2.60;;;32.80;38.00;;;;;;5074296;28;20032;-81
2022/08/10 10:12:47;;;;;;;5.72;2.78;;;31.20;38.80;;;;;;5085411;28;20687;-80
2022/08/10 10:15:32;;;;;;;6.57;2.78;;;29.20;41.50;;;;;;5072052;28;20359;-82
2022/08/10 10:18:07;;;;;;;8.27;2.75;;;28.10;43.80;;;;;;5074121;28;20397;-83
2022/08/10 10:21:13;;;;;;;6.00;2.42;;;27.60;44.40;;;;;;5074105;28;20505;-78
2022/08/10 10:24:24;;;;;;;4.63;2.35;;;27.20;44.90;;;;;;5034206;28;20049;-82
2022/08/10 10:27:14;;;;;;;10.90;4.15;;;26.70;45.90;;;;;;5045295;28;20036;-79
2022/08/10 10:30:03;;;;;;;3.17;2.15;;;26.60;46.30;;;;;;5073328;28;20448;-82
2022/08/10 10:32:43;;;;;;;5.75;2.05;;;27.10;45.50;;;;;;5064875;28;20103;-79
2022/08/10 10:35:32;;;;;;;5.63;1.60;;;27.10;44.50;;;;;;5073979;28;20021;-81
2022/08/10 10:38:02;;;;;;;6.18;4.03;;;27.00;44.90;;;;;;5061891;28;20045;-80
2022/08/10 10:40:35;;;;;;;3.63;2.17;;;26.70;46.10;;;;;;5073690;28;20031;-80
2022/08/10 10:43:14;;;;;;;3.65;1.95;;;26.70;46.00;;;;;;5073683;28;20055;-80
2022/08/10 10:45:50;;;;;;;12.35;3.63;;;26.70;45.70;;;;;;5073595;28;20033;-80
2022/08/10 10:48:31;;;;;;;3.85;1.77;;;26.90;45.40;;;;;;5067034;28;20024;-81
2022/08/10 10:51:12;;;;;;;5.53;1.63;;;26.80;45.20;;;;;;5071484;28;20016;-80
2022/08/10 10:53:58;;;;;;;4.45;1.90;;;26.70;45.50;;;;;;5073220;28;20025;-81
2022/08/10 10:56:24;;;;;;;3.47;1.77;;;;;;;;;;5060472;28;20512;-79
2022/08/10 10:58:50;;;;;;;3.40;1.73;;;;;;;;;;5073561;28;20663;-82
2022/08/10 11:01:29;;;;;;;4.43;1.90;;;26.80;45.80;;;;;;5074117;28;20047;-80
2022/08/10 11:04:10;;;;;;;3.97;1.77;;;26.30;47.20;;;;;;5074073;28;20048;-80
2022/08/10 11:06:49;;;;;;;7.75;1.92;;;26.30;47.70;;;;;;5069077;28;20108;-80
2022/08/10 11:09:23;;;;;;;5.18;3.40;;;26.30;47.30;;;;;;5073709;28;20539;-80
2022/08/10 11:11:57;;;;;;;3.47;1.70;;;26.20;46.80;;;;;;5073493;28;20040;-80
2022/08/10 11:14:38;;;;;;;6.00;1.80;;;26.30;47.00;;;;;;5073444;28;20017;-81
2022/08/10 11:17:34;;;;;;;7.18;5.10;;;26.40;46.50;;;;;;5073078;28;20008;-80
2022/08/10 11:20:38;;;;;;;;;;;26.50;46.30;;;;;;5072133;28;20755;-81
2022/08/10 11:23:07;;;;;;;3.97;2.70;;;26.40;46.10;;;;;;5023780;28;20212;-78
2022/08/10 11:25:53;;;;;;;10.88;4.00;;;26.20;46.30;;;;;;5030702;28;20056;-80
2022/08/10 11:28:34;;;;;;;5.40;2.78;;;25.90;46.70;;;;;;5044427;28;20109;-80
2022/08/10 11:31:14;;;;;;;3.90;2.20;;;25.90;47.50;;;;;;5060728;28;20039;-79
2022/08/10 11:33:49;;;;;;;4.35;2.20;;;25.90;46.30;;;;;;5072592;28;20107;-79
2022/08/10 11:36:45;;;;;;;11.82;4.85;;;25.90;46.20;;;;;;5070275;28;20362;-81
2022/08/10 11:39:46;;;;;;;3.30;2.17;;;26.00;46.70;;;;;;5071953;28;20036;-80
2022/08/10 11:42:59;;;;;;;3.83;2.00;;;26.10;46.30;;;;;;5067209;28;20040;-80
2022/08/10 11:45:30;;;;;;;4.40;1.98;;;26.30;46.50;;;;;;5035542;28;20490;-79
2022/08/10 11:48:05;;;;;;;9.32;2.70;;;26.40;47.10;;;;;;5072287;28;20425;-81
2022/08/10 11:50:38;;;;;;;8.43;2.42;;;26.40;45.30;;;;;;5071089;28;20021;-78
2022/08/10 11:53:27;;;;;;;4.18;1.75;;;26.20;45.00;;;;;;5063304;28;20022;-81
2022/08/10 11:55:58;;;;;;;4.07;1.58;;;26.20;45.30;;;;;;5071851;28;20024;-79
2022/08/10 12:01:17;;;;;;;4.25;1.63;;;25.90;45.50;;;;;;5073057;28;20024;-81
2022/08/10 12:03:46;;;;;;;4.03;1.83;;;25.90;45.60;;;;;;5075461;28;20478;-81
2022/08/10 12:06:18;;;;;;;3.03;1.83;;;25.80;45.50;;;;;;5074392;28;20019;-81
2022/08/10 12:08:47;;;;;;;4.93;2.17;;;25.90;45.70;;;;;;5059692;28;20064;-82
2022/08/10 12:11:23;;;;;;;1.80;1.55;;;26.00;45.90;;;;;;5071346;28;20045;-80
2022/08/10 12:14:13;;;;;;;3.33;1.40;;;26.10;44.60;;;;;;5058430;28;20028;-78
2022/08/10 12:16:43;;;;;;;5.15;2.00;;;26.20;44.50;;;;;;5071707;28;20044;-79
2022/08/10 12:19:32;;;;;;;3.47;2.10;;;26.10;43.80;;;;;;5071990;28;20048;-80
2022/08/10 12:22:07;;;;;;;4.85;1.90;;;25.80;44.50;;;;;;5071622;28;20472;-80
2022/08/10 12:24:39;;;;;;;3.38;1.73;;;25.60;45.70;;;;;;5071500;28;20027;-81
2022/08/10 12:27:13;;;;;;;6.07;2.15;;;25.60;46.20;;;;;;5071430;28;20199;-80
2022/08/10 12:30:07;;;;;;;2.50;1.90;;;25.60;46.50;;;;;;5065434;28;20021;-81
2022/08/10 12:32:36;;;;;;;4.30;1.88;;;25.90;46.70;;;;;;5058110;28;20024;-81
2022/08/10 12:35:29;;;;;;;2.28;1.40;;;26.10;46.40;;;;;;5071763;28;20092;-80
2022/08/10 12:38:32;;;;;;;3.85;1.80;;;26.30;46.10;;;;;;5060395;28;20044;-81
2022/08/10 12:41:14;;;;;;;6.07;2.05;;;26.50;46.60;;;;;;5057591;28;20439;-78
2022/08/10 12:43:50;;;;;;;7.43;1.50;;;26.50;45.70;;;;;;5072023;28;20123;-82
2022/08/10 12:46:31;;;;;;;4.53;1.63;;;26.30;44.20;;;;;;5069684;28;20036;-81
2022/08/10 12:49:19;;;;;;;2.70;1.70;;;25.80;45.00;;;;;;5071551;28;20025;-81
2022/08/10 12:51:51;;;;;;;3.55;1.60;;;25.30;45.70;;;;;;5070976;28;20459;-81
2022/08/10 12:54:19;;;;;;;6.10;1.75;;;25.00;46.60;;;;;;5070295;28;20489;-81
2022/08/10 12:56:50;;;;;;;4.78;1.77;;;25.00;47.50;;;;;;5071668;28;20381;-80
2022/08/10 12:59:19;;;;;;;5.97;1.75;;;25.00;47.30;;;;;;5072384;28;20443;-81
2022/08/10 13:01:52;;;;;;;5.57;1.65;;;25.00;47.30;;;;;;5061019;28;20028;-81
2022/08/10 13:04:32;;;;;;;5.97;2.50;;;24.90;47.30;;;;;;5071439;28;20027;-81
2022/08/10 13:07:00;;;;;;;6.30;2.00;;;24.80;48.40;;;;;;5071470;28;20024;-80
2022/08/10 13:09:27;;;;;;;3.40;1.90;;;24.80;48.80;;;;;;5071476;28;20062;-79
2022/08/10 13:12:14;;;;;;;1.25;1.02;;;24.80;47.70;;;;;;5071449;28;20024;-81
2022/08/10 13:14:46;;;;;;;5.35;1.75;;;24.80;47.50;;;;;;5071421;28;20482;-82
2022/08/10 13:17:23;;;;;;;5.28;1.73;;;24.70;47.50;;;;;;5056629;28;20024;-80
2022/08/10 13:19:51;;;;;;;2.90;1.85;;;24.60;48.60;;;;;;5065630;28;20082;-83
2022/08/10 13:22:19;;;;;;;3.00;1.42;;;24.50;49.10;;;;;;5058183;28;20013;-81
2022/08/10 13:24:50;;;;;;;5.93;1.73;;;24.50;48.80;;;;;;5071590;28;20020;-81
2022/08/10 13:27:17;;;;;;;4.15;1.65;;;24.30;49.50;;;;;;5071739;28;20082;-81
2022/08/10 13:29:49;;;;;;;3.60;1.63;;;24.30;49.50;;;;;;5071497;28;20024;-80